Time;durP1;ratioP1;P1;durP2;ratioP2;P2;SDS_P1;SDS_P2;PMS_P1;PMS_P2;Temp;Humidity;BMP_temperature;BMP_pressure;BME280_temperature;BME280_humidity;BME280_pressure;Samples;Min_cycle;Max_cycle;Signal;HPM_P1;HPM_P2
2021/12/14 00:00:37;;;;;;;22.55;13.77;;;10.60;99.90;;;;;;5035948;28;20409;-77
2021/12/14 00:03:03;;;;;;;21.10;13.05;;;10.70;99.90;;;;;;5036036;28;20067;-77
2021/12/14 00:05:32;;;;;;;19.95;12.30;;;10.60;99.90;;;;;;5036102;28;20108;-76
2021/12/14 00:08:01;;;;;;;20.98;12.38;;;10.70;99.90;;;;;;5035500;28;20025;-76
2021/12/14 00:13:13;;;;;;;28.67;14.90;;;10.60;99.90;;;;;;5035704;28;20079;-74
2021/12/14 00:15:39;;;;;;;19.80;12.65;;;10.50;99.90;;;;;;5035997;28;20025;-74
2021/12/14 00:18:10;;;;;;;21.65;13.93;;;10.60;99.90;;;;;;5035368;28;20393;-77
2021/12/14 00:20:40;;;;;;;20.55;13.10;;;10.50;99.90;;;;;;5035878;28;20022;-75
2021/12/14 00:25:44;;;;;;;20.17;12.23;;;10.40;99.90;;;;;;5035498;28;20040;-76
2021/12/14 00:28:14;;;;;;;19.63;11.47;;;10.40;99.90;;;;;;5035259;28;20083;-78
2021/12/14 00:30:41;;;;;;;22.60;12.20;;;10.30;99.90;;;;;;5035703;28;20025;-75
2021/12/14 00:33:11;;;;;;;35.78;18.73;;;10.30;99.90;;;;;;5034982;28;20061;-77
2021/12/14 00:35:38;;;;;;;37.80;25.20;;;10.40;99.90;;;;;;5035319;28;20038;-75
2021/12/14 00:38:03;;;;;;;26.25;15.65;;;10.40;99.90;;;;;;5035310;28;20382;-75
2021/12/14 00:40:34;;;;;;;23.35;13.55;;;10.50;99.90;;;;;;5034868;28;20021;-75
2021/12/14 00:43:01;;;;;;;20.92;13.15;;;10.40;99.90;;;;;;5035225;28;20105;-77
2021/12/14 00:45:29;;;;;;;22.40;13.18;;;10.40;99.90;;;;;;5034858;28;20643;-78
2021/12/14 00:47:55;;;;;;;22.80;12.32;;;10.40;99.90;;;;;;5034783;28;20025;-78
2021/12/14 00:50:24;;;;;;;20.83;12.20;;;10.40;99.90;;;;;;5033464;28;20060;-75
2021/12/14 00:52:50;;;;;;;21.63;12.63;;;10.30;99.90;;;;;;5035163;28;20025;-74
2021/12/14 00:55:23;;;;;;;24.02;14.48;;;10.40;99.90;;;;;;5034663;28;20067;-73
2021/12/14 00:57:49;;;;;;;24.13;13.30;;;10.30;99.90;;;;;;5034606;28;20069;-77
2021/12/14 01:00:20;;;;;;;20.58;12.30;;;10.40;99.90;;;;;;5034526;28;20017;-77
2021/12/14 01:02:46;;;;;;;26.63;14.63;;;10.30;99.90;;;;;;5034810;28;20027;-75
2021/12/14 01:05:18;;;;;;;21.08;12.70;;;10.40;99.90;;;;;;5034460;28;20426;-76
2021/12/14 01:07:44;;;;;;;20.52;13.05;;;10.30;99.90;;;;;;5033946;28;20425;-77
2021/12/14 01:10:17;;;;;;;25.17;13.48;;;10.40;99.90;;;;;;5034610;28;20021;-74
2021/12/14 01:12:50;;;;;;;24.95;14.93;;;10.50;99.90;;;;;;5034808;28;20030;-73
2021/12/14 01:15:27;;;;;;;22.80;13.50;;;10.50;99.90;;;;;;5034562;28;20024;-76
2021/12/14 01:18:13;;;;;;;24.38;14.35;;;10.50;99.90;;;;;;5034488;28;20481;-77
2021/12/14 01:20:43;;;;;;;25.70;15.15;;;10.40;99.90;;;;;;5034477;28;20018;-74
2021/12/14 01:23:25;;;;;;;22.55;13.68;;;10.40;99.90;;;;;;5034536;28;20097;-78
2021/12/14 01:25:53;;;;;;;22.98;13.52;;;10.40;99.90;;;;;;5032529;28;20033;-73
2021/12/14 01:28:26;;;;;;;21.50;13.32;;;10.40;99.90;;;;;;5033731;28;20095;-77
2021/12/14 01:31:24;;;;;;;23.00;13.65;;;10.50;99.90;;;;;;5033960;28;20494;-76
2021/12/14 01:33:55;;;;;;;25.75;13.82;;;10.50;99.90;;;;;;5033721;28;20521;-76
2021/12/14 01:36:27;;;;;;;23.42;14.90;;;10.40;99.90;;;;;;5034163;28;20430;-74
2021/12/14 01:41:40;;;;;;;25.85;14.35;;;10.30;99.90;;;;;;5033821;28;20036;-74
2021/12/14 01:44:08;;;;;;;24.60;14.63;;;10.30;99.90;;;;;;5033771;28;20049;-76
2021/12/14 01:46:46;;;;;;;24.88;14.68;;;10.30;99.90;;;;;;5033764;28;20104;-77
2021/12/14 01:49:15;;;;;;;21.60;12.35;;;10.30;99.90;;;;;;5034250;28;20117;-75
2021/12/14 01:51:44;;;;;;;22.10;13.20;;;10.30;99.90;;;;;;5033539;28;20532;-77
2021/12/14 01:54:13;;;;;;;23.73;14.13;;;10.30;99.90;;;;;;5033511;28;20029;-74
2021/12/14 01:56:38;;;;;;;24.85;14.68;;;10.40;99.90;;;;;;5033567;28;20028;-76
2021/12/14 01:59:14;;;;;;;22.60;13.48;;;10.40;99.90;;;;;;5033529;28;20488;-77
2021/12/14 02:01:57;;;;;;;22.30;12.80;;;10.40;99.90;;;;;;5034076;28;20032;-74
2021/12/14 02:04:26;;;;;;;24.45;13.80;;;10.50;99.90;;;;;;5031980;28;20033;-76
2021/12/14 02:06:58;;;;;;;23.52;13.23;;;10.50;99.90;;;;;;5033947;28;20026;-77
2021/12/14 02:09:27;;;;;;;21.38;12.55;;;10.40;99.90;;;;;;5033714;28;20025;-73
2021/12/14 02:11:58;;;;;;;21.50;12.75;;;10.30;99.90;;;;;;5033307;28;20025;-75
2021/12/14 02:14:25;;;;;;;21.63;11.82;;;10.30;99.90;;;;;;5033191;28;20044;-75
2021/12/14 02:16:58;;;;;;;21.92;12.15;;;10.30;99.90;;;;;;5033275;28;20478;-75
2021/12/14 02:19:25;;;;;;;21.02;12.43;;;10.40;99.90;;;;;;5033246;28;20017;-74
2021/12/14 02:21:52;;;;;;;22.83;12.80;;;10.40;99.90;;;;;;5033231;28;20103;-75
2021/12/14 02:24:20;;;;;;;22.95;12.77;;;10.40;99.90;;;;;;5033121;28;20033;-74
2021/12/14 02:26:47;;;;;;;21.48;12.82;;;10.50;99.90;;;;;;5033460;28;20026;-76
2021/12/14 02:29:30;;;;;;;22.73;13.07;;;10.50;99.90;;;;;;5032983;28;20045;-76
2021/12/14 02:32:25;;;;;;;21.38;12.43;;;10.50;99.90;;;;;;5033401;28;20413;-76
2021/12/14 02:34:54;;;;;;;25.60;14.07;;;10.50;99.90;;;;;;5033134;28;20034;-76
2021/12/14 02:37:33;;;;;;;24.55;13.85;;;10.50;99.90;;;;;;5033413;28;20045;-75
2021/12/14 02:40:20;;;;;;;22.15;13.52;;;10.60;99.90;;;;;;5033700;28;20100;-73
2021/12/14 02:42:50;;;;;;;23.75;14.63;;;10.50;99.90;;;;;;5033404;28;20029;-77
2021/12/14 02:45:21;;;;;;;20.83;13.07;;;10.50;99.90;;;;;;5033108;28;20033;-76
2021/12/14 02:47:46;;;;;;;;;;;10.60;99.90;;;;;;5033481;28;20039;-74
2021/12/14 02:50:13;;;;;;;22.67;13.60;;;10.60;99.90;;;;;;5033004;28;19994;-74
2021/12/14 02:52:40;;;;;;;20.98;12.38;;;10.50;99.90;;;;;;5032860;28;20026;-75
2021/12/14 02:55:10;;;;;;;24.55;12.77;;;10.50;99.90;;;;;;5032985;28;20482;-74
2021/12/14 02:57:38;;;;;;;19.70;12.82;;;10.40;99.90;;;;;;5033223;28;20022;-78
2021/12/14 03:00:38;;;;;;;19.95;12.50;;;10.40;99.90;;;;;;5032868;28;20441;-74
2021/12/14 03:03:06;;;;;;;23.48;13.23;;;10.40;99.90;;;;;;5031647;28;20030;-77
2021/12/14 03:05:37;;;;;;;22.55;13.00;;;10.40;99.90;;;;;;5032846;28;20116;-76
2021/12/14 03:08:33;;;;;;;19.63;11.93;;;10.40;99.90;;;;;;5033107;28;20029;-76
2021/12/14 03:11:11;;;;;;;20.50;11.55;;;10.50;99.90;;;;;;5032543;28;20041;-78
2021/12/14 03:13:50;;;;;;;17.08;10.80;;;10.50;99.90;;;;;;5033069;28;20033;-76
2021/12/14 03:16:36;;;;;;;17.42;10.40;;;10.50;99.90;;;;;;5033063;28;20063;-76
2021/12/14 03:19:06;;;;;;;15.50;9.30;;;10.50;99.90;;;;;;5033336;28;20060;-74
2021/12/14 03:21:35;;;;;;;18.88;11.18;;;10.50;99.90;;;;;;5032988;28;20021;-76
2021/12/14 03:24:08;;;;;;;18.48;10.15;;;10.50;99.90;;;;;;5032824;28;20025;-73
2021/12/14 03:26:37;;;;;;;20.75;12.00;;;10.40;99.90;;;;;;5031181;28;20041;-73
2021/12/14 03:29:12;;;;;;;18.58;11.20;;;10.50;99.90;;;;;;5030940;28;20049;-75
2021/12/14 03:31:44;;;;;;;19.38;10.98;;;10.50;99.90;;;;;;5036901;28;20033;-75
2021/12/14 03:34:14;;;;;;;18.05;10.48;;;10.40;99.90;;;;;;5036502;28;20075;-78
2021/12/14 03:36:44;;;;;;;18.88;11.00;;;10.40;99.90;;;;;;5036162;28;20027;-77
2021/12/14 03:39:18;;;;;;;20.38;11.63;;;10.50;99.90;;;;;;5034588;28;20029;-73
2021/12/14 03:42:16;;;;;;;19.90;11.60;;;10.50;99.90;;;;;;5036623;28;20112;-75
2021/12/14 03:44:47;;;;;;;17.90;10.18;;;10.50;99.90;;;;;;5035600;28;20048;-77
2021/12/14 03:47:22;;;;;;;19.65;11.00;;;10.50;99.90;;;;;;5034450;28;20029;-76
2021/12/14 03:49:52;;;;;;;19.35;10.63;;;10.50;99.90;;;;;;5036323;28;20438;-78
2021/12/14 03:52:23;;;;;;;18.02;10.98;;;10.50;99.90;;;;;;5035795;28;20528;-74
2021/12/14 03:54:49;;;;;;;;;;;10.50;99.90;;;;;;5036271;28;20021;-76
2021/12/14 03:57:15;;;;;;;18.98;11.13;;;10.40;99.90;;;;;;5035751;28;19927;-77
2021/12/14 03:59:42;;;;;;;18.88;10.65;;;10.40;99.90;;;;;;5035719;28;20545;-78
2021/12/14 04:02:10;;;;;;;19.77;11.27;;;10.30;99.90;;;;;;5035663;28;20057;-76
2021/12/14 04:04:43;;;;;;;22.92;12.40;;;10.40;99.90;;;;;;5035875;28;20057;-74
2021/12/14 04:07:13;;;;;;;21.20;11.50;;;10.30;99.90;;;;;;5035880;28;20358;-76
2021/12/14 04:09:40;;;;;;;22.83;13.07;;;10.30;99.90;;;;;;5035844;28;20104;-76
2021/12/14 04:12:10;;;;;;;27.80;14.38;;;10.20;99.90;;;;;;5035430;28;20036;-74
2021/12/14 04:14:41;;;;;;;22.30;13.05;;;10.20;99.90;;;;;;5035475;28;20047;-75
2021/12/14 04:17:07;;;;;;;24.13;12.77;;;10.10;99.90;;;;;;5035655;28;20033;-76
2021/12/14 04:19:35;;;;;;;23.25;12.77;;;10.10;99.90;;;;;;5035357;28;20017;-75
2021/12/14 04:22:06;;;;;;;25.52;13.55;;;10.00;99.90;;;;;;5035269;28;20022;-76
2021/12/14 04:24:35;;;;;;;25.38;13.88;;;10.00;99.90;;;;;;5035360;28;20544;-77
2021/12/14 04:27:06;;;;;;;22.13;12.43;;;9.90;99.90;;;;;;5035006;28;20029;-76
2021/12/14 04:29:32;;;;;;;24.73;13.52;;;9.80;99.90;;;;;;5035466;28;20048;-75
2021/12/14 04:31:59;;;;;;;23.70;11.85;;;9.80;99.90;;;;;;5035000;28;20026;-74
2021/12/14 04:34:25;;;;;;;23.15;12.75;;;9.70;99.90;;;;;;5035625;28;20035;-77
2021/12/14 04:36:53;;;;;;;17.50;10.57;;;9.70;99.90;;;;;;5034997;28;20020;-75
2021/12/14 04:53:11;;;;;;;23.77;11.88;;;9.70;99.90;;;;;;5034684;28;20579;-76
2021/12/14 04:55:42;;;;;;;24.50;12.57;;;9.60;99.90;;;;;;5034928;28;20581;-76
2021/12/14 04:58:08;;;;;;;21.92;12.07;;;9.70;99.90;;;;;;5034911;28;20389;-75
2021/12/14 05:00:39;;;;;;;20.92;11.55;;;9.60;99.90;;;;;;5034877;28;20021;-76
2021/12/14 05:03:15;;;;;;;21.38;11.88;;;9.60;99.90;;;;;;5034856;28;20025;-74
2021/12/14 05:05:48;;;;;;;20.75;11.35;;;9.50;99.90;;;;;;5034755;28;20017;-74
2021/12/14 05:10:52;;;;;;;22.97;11.67;;;9.50;99.90;;;;;;5034683;28;20040;-75
2021/12/14 05:13:27;;;;;;;22.60;12.50;;;9.40;99.90;;;;;;5034474;28;20079;-76
2021/12/14 05:15:53;;;;;;;21.77;13.02;;;9.60;99.90;;;;;;5034556;28;20025;-74
2021/12/14 05:18:18;;;;;;;25.95;12.63;;;9.70;99.90;;;;;;5034194;28;20027;-78
2021/12/14 05:20:48;;;;;;;36.88;22.35;;;9.80;99.90;;;;;;5034145;28;20478;-75
2021/12/14 05:23:28;;;;;;;21.45;11.88;;;9.80;99.90;;;;;;5034033;28;20486;-77
2021/12/14 05:25:54;;;;;;;24.75;12.73;;;9.70;99.90;;;;;;5034443;28;20029;-74
2021/12/14 05:28:21;;;;;;;22.20;12.13;;;9.70;99.90;;;;;;5033665;28;20041;-74
2021/12/14 05:30:52;;;;;;;19.35;10.90;;;9.80;99.90;;;;;;5032764;28;20065;-75
2021/12/14 05:33:23;;;;;;;25.55;13.52;;;9.90;99.90;;;;;;5034249;28;20045;-73
2021/12/14 05:35:51;;;;;;;33.63;20.58;;;9.90;99.90;;;;;;5034239;28;20028;-76
2021/12/14 05:38:23;;;;;;;27.25;16.45;;;9.90;99.90;;;;;;5033839;28;20018;-75
2021/12/14 05:43:19;;;;;;;22.33;12.07;;;9.90;99.90;;;;;;5034072;28;20458;-74
2021/12/14 05:45:53;;;;;;;20.80;11.43;;;9.80;99.90;;;;;;5034356;28;20381;-76
2021/12/14 05:48:22;;;;;;;19.73;10.30;;;9.70;99.90;;;;;;5033996;28;20037;-75
2021/12/14 05:50:52;;;;;;;18.92;10.57;;;9.80;99.90;;;;;;5033710;28;20108;-73
2021/12/14 05:53:26;;;;;;;20.08;11.35;;;9.80;99.90;;;;;;5033769;28;20497;-75
2021/12/14 05:55:53;;;;;;;19.15;11.15;;;9.80;99.90;;;;;;5033935;28;20147;-73
2021/12/14 05:58:22;;;;;;;21.88;12.25;;;9.80;99.90;;;;;;5033539;28;20048;-75
2021/12/14 06:00:52;;;;;;;19.63;11.18;;;9.60;99.90;;;;;;5033508;28;20026;-77
2021/12/14 06:03:22;;;;;;;21.88;12.10;;;9.60;99.90;;;;;;5033725;28;20440;-73
2021/12/14 06:05:48;;;;;;;20.63;11.57;;;9.50;99.90;;;;;;5033336;28;20041;-72
2021/12/14 06:08:24;;;;;;;19.45;11.48;;;9.60;99.90;;;;;;5033455;28;20076;-76
2021/12/14 06:10:51;;;;;;;21.63;12.48;;;9.60;99.90;;;;;;5033975;28;20053;-75
2021/12/14 06:13:18;;;;;;;20.55;11.77;;;9.60;99.90;;;;;;5033310;28;20501;-76
2021/12/14 06:15:45;;;;;;;22.30;12.20;;;9.70;99.90;;;;;;5033305;28;20028;-77
2021/12/14 06:18:13;;;;;;;23.38;12.98;;;9.80;99.90;;;;;;5033552;28;20072;-78
2021/12/14 06:20:42;;;;;;;21.67;12.02;;;9.80;99.90;;;;;;5033123;28;20024;-76
2021/12/14 06:23:08;;;;;;;22.90;12.63;;;9.70;99.90;;;;;;5033457;28;20112;-75
2021/12/14 06:25:33;;;;;;;21.92;12.70;;;9.70;99.90;;;;;;5033509;28;20111;-74
2021/12/14 06:28:01;;;;;;;23.15;12.80;;;9.80;99.90;;;;;;5033287;28;20053;-76
2021/12/14 06:30:30;;;;;;;23.23;12.30;;;9.80;99.90;;;;;;5031918;28;20112;-75
2021/12/14 06:33:08;;;;;;;23.02;12.75;;;9.80;99.90;;;;;;5033380;28;20025;-77
2021/12/14 06:35:40;;;;;;;21.45;11.93;;;9.80;99.90;;;;;;5033188;28;20104;-75
2021/12/14 06:38:32;;;;;;;20.95;11.77;;;9.80;99.90;;;;;;5033136;28;20067;-74
2021/12/14 06:41:01;;;;;;;23.48;13.48;;;9.50;99.90;;;;;;5033670;28;20017;-78
2021/12/14 06:43:35;;;;;;;24.23;12.80;;;9.50;99.90;;;;;;5033586;28;20116;-78
2021/12/14 06:46:07;;;;;;;25.02;12.63;;;9.40;99.90;;;;;;5033045;28;20089;-76
2021/12/14 06:48:51;;;;;;;22.55;12.55;;;9.50;99.90;;;;;;5033043;28;20029;-75
2021/12/14 06:51:16;;;;;;;21.42;12.30;;;9.40;99.90;;;;;;5033562;28;20104;-77
2021/12/14 06:53:45;;;;;;;23.48;12.82;;;9.40;99.90;;;;;;5033460;28;20109;-77
2021/12/14 06:56:13;;;;;;;22.35;12.38;;;9.40;99.90;;;;;;5033209;28;20543;-74
2021/12/14 06:58:52;;;;;;;20.00;10.65;;;9.50;99.90;;;;;;5033184;28;20022;-76
2021/12/14 07:01:25;;;;;;;22.52;12.15;;;9.60;99.90;;;;;;5033244;28;20026;-76
2021/12/14 07:03:58;;;;;;;24.13;12.57;;;9.70;99.90;;;;;;5033474;28;20057;-76
2021/12/14 07:06:29;;;;;;;23.02;12.90;;;9.70;99.90;;;;;;5037043;28;20026;-75
2021/12/14 07:09:03;;;;;;;24.75;13.20;;;9.80;99.90;;;;;;5036938;28;20033;-78
2021/12/14 07:11:29;;;;;;;25.80;13.73;;;9.70;99.90;;;;;;5035595;28;20125;-78
2021/12/14 07:13:57;;;;;;;24.67;13.77;;;9.80;99.90;;;;;;5036577;28;20034;-75
2021/12/14 07:16:31;;;;;;;30.20;14.60;;;9.90;99.90;;;;;;5036524;28;20026;-73
2021/12/14 07:19:01;;;;;;;22.73;13.05;;;9.90;99.90;;;;;;5035029;28;20037;-75
2021/12/14 07:21:36;;;;;;;23.70;14.43;;;10.00;99.90;;;;;;5036799;28;20018;-76
2021/12/14 07:24:20;;;;;;;23.70;13.88;;;9.90;99.90;;;;;;5036689;28;20401;-74
2021/12/14 07:26:46;;;;;;;23.75;13.95;;;9.80;99.90;;;;;;5036639;28;20359;-77
2021/12/14 07:29:11;;;;;;;25.92;13.93;;;9.80;99.90;;;;;;5036161;28;20049;-75
2021/12/14 07:31:41;;;;;;;24.42;13.38;;;9.70;99.90;;;;;;5036143;28;20477;-75
2021/12/14 07:34:07;;;;;;;24.17;13.60;;;9.50;99.90;;;;;;5036826;28;20486;-75
2021/12/14 07:36:38;;;;;;;24.80;14.23;;;9.60;99.90;;;;;;5036228;28;20033;-74
2021/12/14 07:39:08;;;;;;;22.95;13.98;;;9.60;99.90;;;;;;5036148;28;20022;-75
2021/12/14 07:41:43;;;;;;;24.65;14.25;;;9.70;99.90;;;;;;5036061;28;20021;-76
2021/12/14 07:44:21;;;;;;;23.58;13.52;;;9.80;99.90;;;;;;5036578;28;20014;-74
2021/12/14 07:47:04;;;;;;;30.38;15.23;;;9.80;99.90;;;;;;5036571;28;20070;-75
2021/12/14 07:49:45;;;;;;;26.95;15.18;;;9.90;99.90;;;;;;5036525;28;20156;-77
2021/12/14 07:52:14;;;;;;;28.75;15.77;;;9.90;99.90;;;;;;5036170;28;20036;-76
2021/12/14 07:54:48;;;;;;;26.10;13.88;;;10.00;99.90;;;;;;5036132;28;20373;-77
2021/12/14 07:57:25;;;;;;;25.67;14.15;;;10.00;99.90;;;;;;5036104;28;20037;-79
2021/12/14 07:59:52;;;;;;;25.73;14.68;;;10.10;99.90;;;;;;5043520;28;20494;-76
2021/12/14 08:02:29;;;;;;;28.02;15.00;;;10.00;99.90;;;;;;5036015;28;20087;-79
2021/12/14 08:05:04;;;;;;;26.50;14.32;;;10.00;99.90;;;;;;5035996;28;20406;-76
2021/12/14 08:07:33;;;;;;;26.75;14.40;;;10.10;99.90;;;;;;5035869;28;20507;-76
2021/12/14 08:10:08;;;;;;;26.70;15.50;;;10.10;99.90;;;;;;5036339;28;20029;-78
2021/12/14 08:12:34;;;;;;;26.73;15.10;;;10.10;99.90;;;;;;5035310;28;20112;-77
2021/12/14 08:15:05;;;;;;;25.90;15.68;;;10.10;99.90;;;;;;5035454;28;20151;-76
2021/12/14 08:17:31;;;;;;;29.98;17.38;;;10.20;99.90;;;;;;5035244;28;20025;-76
2021/12/14 08:19:57;;;;;;;28.00;16.70;;;10.00;99.90;;;;;;5049149;28;20131;-76
2021/12/14 08:22:38;;;;;;;31.67;17.17;;;10.00;99.90;;;;;;5047989;28;20087;-77
2021/12/14 08:25:07;;;;;;;24.90;13.90;;;9.90;99.90;;;;;;5035244;28;20597;-76
2021/12/14 08:27:33;;;;;;;24.35;14.18;;;9.70;99.90;;;;;;5046805;28;20049;-76
2021/12/14 08:30:03;;;;;;;23.33;14.25;;;9.60;99.90;;;;;;5050716;28;20378;-76
2021/12/14 08:32:31;;;;;;;;;;;9.70;99.90;;;;;;5035847;28;20029;-80
2021/12/14 08:35:00;;;;;;;27.52;15.35;;;9.70;99.90;;;;;;5050529;28;20361;-77
2021/12/14 08:37:43;;;;;;;31.17;16.70;;;9.60;99.90;;;;;;5055336;28;20013;-77
2021/12/14 08:40:17;;;;;;;29.77;17.73;;;9.70;99.90;;;;;;5054426;28;20082;-77
2021/12/14 08:43:02;;;;;;;30.80;16.67;;;9.70;99.90;;;;;;5055186;28;20385;-78
2021/12/14 08:45:33;;;;;;;33.03;17.13;;;9.80;99.90;;;;;;5035695;28;20041;-75
2021/12/14 08:48:02;;;;;;;31.17;17.63;;;9.60;99.90;;;;;;5045934;28;20527;-75
2021/12/14 08:50:31;;;;;;;30.15;17.25;;;9.50;99.90;;;;;;5054654;28;20033;-75
2021/12/14 08:52:57;;;;;;;30.70;17.63;;;9.50;99.90;;;;;;5054121;28;20108;-76
2021/12/14 08:55:28;;;;;;;31.15;15.70;;;9.60;99.90;;;;;;5036617;28;20068;-78
2021/12/14 08:57:54;;;;;;;;;;;9.70;99.90;;;;;;5035373;28;20489;-76
2021/12/14 09:00:31;;;;;;;31.27;17.27;;;9.80;99.90;;;;;;5035155;28;19909;-78
2021/12/14 09:03:00;;;;;;;31.20;17.65;;;9.90;99.90;;;;;;5034899;28;20497;-73
2021/12/14 09:05:33;;;;;;;33.05;17.02;;;10.00;99.90;;;;;;5051883;28;20039;-74
2021/12/14 09:08:00;;;;;;;31.20;16.63;;;9.80;99.90;;;;;;5055194;28;20025;-76
2021/12/14 09:10:29;;;;;;;27.50;15.40;;;9.60;99.90;;;;;;5037212;28;20105;-76
2021/12/14 09:12:59;;;;;;;33.20;17.70;;;9.60;99.90;;;;;;5034793;28;20457;-76
2021/12/14 09:15:38;;;;;;;29.75;17.48;;;9.60;99.90;;;;;;5036017;28;20024;-78
2021/12/14 09:18:05;;;;;;;32.13;17.17;;;9.50;99.90;;;;;;5046926;28;20086;-77
2021/12/14 09:20:41;;;;;;;29.10;16.63;;;9.40;99.90;;;;;;5053153;28;20024;-79
2021/12/14 09:23:13;;;;;;;31.42;18.02;;;9.40;99.90;;;;;;5034410;28;20041;-78
2021/12/14 09:25:40;;;;;;;32.10;16.58;;;9.50;99.90;;;;;;5035331;28;20021;-82
2021/12/14 09:28:07;;;;;;;29.63;15.95;;;9.60;99.90;;;;;;5033367;28;20525;-84
2021/12/14 09:30:37;;;;;;;29.20;15.35;;;9.80;99.90;;;;;;5040033;28;20021;-75
2021/12/14 09:33:04;;;;;;;34.83;18.33;;;9.90;99.90;;;;;;5053871;28;20040;-75
2021/12/14 09:35:31;;;;;;;33.30;17.92;;;9.90;99.90;;;;;;5054196;28;20025;-78
2021/12/14 09:37:58;;;;;;;26.90;16.40;;;10.00;99.90;;;;;;5054218;28;20381;-77
2021/12/14 09:40:32;;;;;;;30.55;17.40;;;9.90;99.90;;;;;;5054238;28;20418;-76
2021/12/14 09:42:58;;;;;;;28.02;14.88;;;9.90;99.90;;;;;;5046227;28;20474;-78
2021/12/14 09:45:43;;;;;;;26.45;15.25;;;10.00;99.90;;;;;;5039862;28;20104;-76
2021/12/14 09:48:11;;;;;;;31.65;14.48;;;9.70;99.90;;;;;;5036037;28;20385;-76
2021/12/14 09:50:38;;;;;;;23.88;14.50;;;9.70;99.90;;;;;;5040017;28;20025;-75
2021/12/14 09:53:06;;;;;;;25.98;14.75;;;9.50;99.90;;;;;;5038713;28;20043;-75
2021/12/14 09:55:35;;;;;;;27.23;15.15;;;9.50;99.90;;;;;;5050688;28;20430;-76
2021/12/14 09:58:06;;;;;;;31.52;16.38;;;9.40;99.90;;;;;;5053440;28;20021;-75
2021/12/14 10:00:40;;;;;;;30.75;16.13;;;9.50;99.90;;;;;;5034196;28;20017;-75
2021/12/14 10:03:06;;;;;;;26.08;15.27;;;9.60;99.90;;;;;;5034140;28;20094;-75
2021/12/14 10:05:46;;;;;;;26.80;16.17;;;9.70;99.90;;;;;;5042925;28;20092;-75
2021/12/14 10:08:20;;;;;;;28.10;15.15;;;9.80;99.90;;;;;;5050748;28;20373;-75
2021/12/14 10:10:59;;;;;;;28.63;16.17;;;9.90;99.90;;;;;;5056895;28;20393;-76
2021/12/14 10:13:25;;;;;;;28.55;17.05;;;10.00;99.90;;;;;;5051558;28;20543;-75
2021/12/14 10:15:54;;;;;;;30.25;16.63;;;10.10;99.90;;;;;;5053954;28;20071;-75
2021/12/14 10:18:33;;;;;;;25.92;15.75;;;10.10;99.90;;;;;;5051260;28;20021;-81
2021/12/14 10:21:20;;;;;;;26.50;15.65;;;10.10;99.90;;;;;;5051648;28;20044;-79
2021/12/14 10:23:48;;;;;;;29.67;16.70;;;10.10;99.90;;;;;;5053273;28;20021;-77
2021/12/14 10:26:15;;;;;;;26.60;15.45;;;10.10;99.90;;;;;;5051756;28;20024;-76
2021/12/14 10:28:46;;;;;;;33.50;17.85;;;10.10;99.90;;;;;;5052980;28;20048;-80
2021/12/14 10:31:14;;;;;;;;;;;10.20;99.90;;;;;;5051544;28;20493;-78
2021/12/14 10:33:43;;;;;;;34.00;17.10;;;10.20;99.90;;;;;;5051301;28;20019;-76
2021/12/14 10:36:23;;;;;;;28.73;16.77;;;10.10;99.90;;;;;;5048917;28;20486;-75
2021/12/14 10:39:20;;;;;;;33.60;17.90;;;10.10;99.90;;;;;;5037540;28;20541;-77
2021/12/14 10:44:40;;;;;;;30.70;16.00;;;9.60;99.90;;;;;;5038229;28;20024;-77
2021/12/14 10:47:07;;;;;;;35.90;18.20;;;9.40;99.90;;;;;;5037413;28;20049;-81
2021/12/14 10:49:33;;;;;;;31.45;16.83;;;9.40;99.90;;;;;;5036931;28;20024;-79
2021/12/14 10:52:05;;;;;;;33.70;18.83;;;9.50;99.90;;;;;;5036926;28;20481;-76
2021/12/14 10:54:30;;;;;;;35.47;19.73;;;9.70;99.90;;;;;;5047023;28;20106;-78
2021/12/14 10:57:10;;;;;;;37.45;19.63;;;9.90;99.90;;;;;;5057294;28;20061;-78
2021/12/14 10:59:40;;;;;;;34.97;19.53;;;10.00;99.90;;;;;;5055221;28;20496;-77
2021/12/14 11:02:08;;;;;;;34.38;17.25;;;10.10;99.90;;;;;;5056780;28;20124;-75
2021/12/14 11:04:52;;;;;;;34.15;18.63;;;10.20;99.90;;;;;;5055219;28;20710;-74
2021/12/14 11:07:38;;;;;;;32.38;19.13;;;10.20;99.90;;;;;;5056320;28;20074;-78
2021/12/14 11:10:12;;;;;;;32.45;18.52;;;10.20;99.90;;;;;;5046152;28;20029;-80
2021/12/14 11:12:41;;;;;;;36.20;19.05;;;9.90;99.90;;;;;;5041307;28;20029;-79
2021/12/14 11:15:18;;;;;;;37.65;20.73;;;9.90;99.90;;;;;;5039699;28;20492;-78
2021/12/14 11:18:08;;;;;;;35.65;19.75;;;9.80;99.90;;;;;;5037075;28;20500;-77
2021/12/14 11:20:42;;;;;;;38.28;21.08;;;9.80;99.90;;;;;;5038376;28;20470;-77
2021/12/14 11:23:16;;;;;;;42.17;21.25;;;9.60;99.90;;;;;;5036627;28;20034;-76
2021/12/14 11:25:51;;;;;;;35.63;18.95;;;9.70;99.90;;;;;;5037940;28;20112;-78
2021/12/14 11:28:30;;;;;;;37.53;19.48;;;9.80;99.90;;;;;;5036220;28;20045;-81
2021/12/14 11:31:23;;;;;;;39.43;21.80;;;9.90;99.90;;;;;;5035983;28;20524;-75
2021/12/14 11:33:52;;;;;;;36.25;19.45;;;9.90;99.90;;;;;;5035746;28;20398;-74
2021/12/14 11:36:17;;;;;;;32.35;17.92;;;10.00;99.90;;;;;;5036450;28;20088;-74
2021/12/14 11:38:48;;;;;;;37.72;21.20;;;10.20;99.90;;;;;;5037200;28;20410;-73
2021/12/14 11:41:25;;;;;;;31.95;18.27;;;10.30;99.90;;;;;;5036040;28;20474;-75
2021/12/14 11:44:14;;;;;;;38.13;19.98;;;10.10;99.90;;;;;;5036593;28;20037;-77
2021/12/14 11:46:58;;;;;;;30.92;17.45;;;10.10;99.90;;;;;;5034901;28;20038;-77
2021/12/14 11:49:49;;;;;;;36.47;19.35;;;10.10;99.90;;;;;;5035963;28;20053;-78
2021/12/14 11:52:38;;;;;;;35.28;17.80;;;10.00;99.90;;;;;;5034696;28;20026;-76
2021/12/14 11:55:26;;;;;;;38.17;19.23;;;9.80;99.90;;;;;;5035774;28;20032;-74
2021/12/14 11:58:08;;;;;;;36.55;17.95;;;9.60;99.90;;;;;;5036099;28;20016;-77
2021/12/14 12:00:39;;;;;;;32.05;17.45;;;9.60;99.90;;;;;;5036320;28;20458;-77
2021/12/14 12:03:21;;;;;;;36.42;18.13;;;9.70;99.90;;;;;;5035990;28;20117;-77
2021/12/14 12:06:02;;;;;;;36.78;19.65;;;9.90;99.90;;;;;;5035938;28;20496;-75
2021/12/14 12:11:15;;;;;;;35.60;18.75;;;10.00;99.90;;;;;;5035584;28;20032;-76
2021/12/14 12:13:41;;;;;;;33.00;17.55;;;10.10;99.90;;;;;;5035411;28;20021;-75
2021/12/14 12:16:24;;;;;;;34.72;19.65;;;10.10;99.90;;;;;;5035523;28;20535;-76
2021/12/14 12:19:13;;;;;;;31.08;17.60;;;10.20;99.90;;;;;;5035676;28;20022;-75
2021/12/14 12:21:39;;;;;;;29.70;16.42;;;10.20;99.90;;;;;;5035636;28;20021;-76
2021/12/14 12:24:25;;;;;;;27.75;15.70;;;10.20;99.90;;;;;;5035808;28;20096;-73
2021/12/14 12:26:51;;;;;;;34.42;18.27;;;10.20;99.90;;;;;;5035013;28;20115;-75
2021/12/14 12:29:26;;;;;;;31.13;17.30;;;10.20;99.90;;;;;;5035219;28;20478;-74
2021/12/14 12:31:59;;;;;;;28.63;15.55;;;10.20;99.90;;;;;;5035122;28;20393;-78
2021/12/14 12:34:34;;;;;;;30.17;16.70;;;10.20;99.90;;;;;;5035165;28;20151;-76
2021/12/14 12:37:00;;;;;;;30.65;15.65;;;10.20;99.90;;;;;;5035143;28;20481;-79
2021/12/14 12:39:29;;;;;;;30.92;16.77;;;10.30;99.90;;;;;;5035276;28;20028;-73
2021/12/14 12:41:58;;;;;;;27.80;16.20;;;10.30;99.90;;;;;;5034730;28;20489;-76
2021/12/14 12:44:39;;;;;;;30.95;18.20;;;10.30;99.90;;;;;;5034988;28;20080;-78
2021/12/14 12:47:18;;;;;;;29.50;16.65;;;10.40;99.90;;;;;;5032774;28;20030;-74
2021/12/14 12:49:50;;;;;;;27.08;15.48;;;10.30;99.90;;;;;;5035123;28;20021;-76
2021/12/14 12:52:17;;;;;;;30.67;17.52;;;10.40;99.90;;;;;;5034932;28;20409;-73
2021/12/14 12:54:48;;;;;;;34.45;18.23;;;10.40;99.90;;;;;;5034738;28;20021;-75
2021/12/14 12:57:36;;;;;;;31.80;17.67;;;10.40;99.90;;;;;;5034646;28;20428;-74
2021/12/14 13:00:24;;;;;;;44.10;26.58;;;10.40;99.90;;;;;;5035079;28;20018;-75
2021/12/14 13:02:59;;;;;;;48.42;29.42;;;10.50;99.90;;;;;;5034192;28;20128;-77
2021/12/14 13:05:44;;;;;;;33.28;18.58;;;10.60;99.90;;;;;;5034839;28;20028;-78
2021/12/14 13:08:19;;;;;;;46.90;25.17;;;10.60;99.90;;;;;;5034235;28;20091;-77
2021/12/14 13:11:00;;;;;;;36.03;20.02;;;10.60;99.90;;;;;;5034701;28;20022;-74
2021/12/14 13:13:36;;;;;;;35.78;19.67;;;10.70;99.90;;;;;;5034615;28;20029;-76
2021/12/14 13:16:21;;;;;;;32.13;17.77;;;10.80;99.90;;;;;;5032760;28;20121;-77
2021/12/14 13:18:50;;;;;;;35.30;19.27;;;10.70;99.90;;;;;;5034544;28;20492;-77
2021/12/14 13:21:45;;;;;;;33.95;18.40;;;10.50;99.90;;;;;;5034748;28;20029;-79
2021/12/14 13:24:23;;;;;;;34.75;17.33;;;10.50;99.90;;;;;;5034321;28;20030;-76
2021/12/14 13:27:04;;;;;;;29.60;16.30;;;10.60;99.90;;;;;;5034414;28;20018;-76
2021/12/14 13:29:37;;;;;;;30.27;17.08;;;10.80;99.90;;;;;;5034362;28;20037;-76
2021/12/14 13:32:09;;;;;;;31.05;17.08;;;10.70;99.90;;;;;;5034045;28;20033;-74